Colesville, New Jersey
Current Conditions -  °F | °C
As of 11:53 AM on Thursday 30 Oct 2014 (Local Time) from KFWN Reporting Station
Overcast Overcast  
Wind Chill: 53°   Ceiling: 3900
Heat Index: 53°   Visibility: 10mi
Dew Point: 37°   Wind: 8mph
Humidity: 55%   Direction: 350°N
Pressure: 30.02"   Gusts: NA
Location:  41.2395°N, 74.6087°W
Report Text: KFWN 301553Z AUTO 35007KT 10SM BKN039 OVC046 12/03 A3002 RMK AO2 SLP165 T01170028
Loading
Personal Weather Stations






























Interactive Weather Map
Tropical Storm Tracking
New forecast layout! Learn more

10-Day Weather Forecast

Advertisements
Track Severe Weather on mobile